createdAt,value
2023-05-06T00:02:10.474Z,11.23
2023-05-06T00:05:14.145Z,11.18
2023-05-06T00:08:16.700Z,11.16
2023-05-06T00:11:19.325Z,11.11
2023-05-06T00:14:21.655Z,11.10
2023-05-06T00:17:24.343Z,11.09
2023-05-06T00:20:27.347Z,11.08
2023-05-06T00:23:30.206Z,11.04
2023-05-06T00:26:32.586Z,11.07
2023-05-06T00:29:35.309Z,10.95
2023-05-06T00:32:38.365Z,10.94
2023-05-06T00:35:41.157Z,10.89
2023-05-06T00:38:43.562Z,10.85
2023-05-06T00:41:46.286Z,10.81
2023-05-06T00:44:48.967Z,10.81
2023-05-06T00:47:52.323Z,10.89
2023-05-06T00:50:55.429Z,10.85
2023-05-06T00:53:58.854Z,10.89
2023-05-06T00:57:02.012Z,10.88
2023-05-06T01:00:07.102Z,10.81
2023-05-06T01:03:09.706Z,10.78
2023-05-06T01:06:32.449Z,10.73
2023-05-06T01:09:53.664Z,10.67
2023-05-06T01:13:09.230Z,10.67
2023-05-06T01:16:12.949Z,10.70
2023-05-06T01:19:25.617Z,10.70
2023-05-06T01:22:29.186Z,10.68
2023-05-06T01:25:33.795Z,10.67
2023-05-06T01:28:36.249Z,10.59
2023-05-06T01:31:45.585Z,10.58
2023-05-06T01:34:52.505Z,10.55
2023-05-06T01:38:01.583Z,10.50
2023-05-06T01:41:04.037Z,10.49
2023-05-06T01:44:07.666Z,10.44
2023-05-06T01:47:10.648Z,10.44
2023-05-06T01:50:13.376Z,10.41
2023-05-06T01:53:15.765Z,10.43
2023-05-06T01:56:18.457Z,10.41
2023-05-06T01:59:21.236Z,10.42
2023-05-06T02:02:24.364Z,10.41
2023-05-06T02:05:27.261Z,10.38
2023-05-06T02:08:29.894Z,10.33
2023-05-06T02:11:32.454Z,10.32
2023-05-06T02:14:36.530Z,10.41
2023-05-06T02:17:39.574Z,10.34
2023-05-06T02:20:42.345Z,10.30
2023-05-06T02:23:50.203Z,10.26
2023-05-06T02:26:52.945Z,10.28
2023-05-06T02:29:55.840Z,10.21
2023-05-06T02:32:58.291Z,10.14
2023-05-06T02:36:01.058Z,10.09
2023-05-06T02:39:04.711Z,10.05
2023-05-06T02:42:07.372Z,10.05
2023-05-06T02:45:10.429Z,10.03
2023-05-06T02:48:13.349Z,10.01
2023-05-06T02:51:16.158Z,9.97
2023-05-06T02:54:18.854Z,9.97
2023-05-06T02:57:21.148Z,9.97
2023-05-06T03:00:23.929Z,9.97
2023-05-06T03:03:26.478Z,10.04
2023-05-06T03:06:29.201Z,10.01
2023-05-06T03:09:31.783Z,10.00
2023-05-06T03:12:35.123Z,10.01
2023-05-06T03:15:37.674Z,9.98
2023-05-06T03:18:40.716Z,9.97
2023-05-06T03:21:44.113Z,9.97
2023-05-06T03:24:46.807Z,10.00
2023-05-06T03:27:49.196Z,9.98
2023-05-06T03:30:52.359Z,9.98
2023-05-06T03:33:54.941Z,9.94
2023-05-06T03:36:57.869Z,9.94
2023-05-06T03:40:04.161Z,9.97
2023-05-06T03:43:07.533Z,9.98
2023-05-06T03:46:11.353Z,10.00
2023-05-06T03:49:14.833Z,10.06
2023-05-06T03:52:18.228Z,10.10
2023-05-06T03:55:21.067Z,10.16
2023-05-06T03:58:23.712Z,10.25
2023-05-06T04:01:26.980Z,10.31
2023-05-06T04:04:30.540Z,10.38
2023-05-06T04:07:33.044Z,10.53
2023-05-06T04:10:41.567Z,10.61
2023-05-06T04:13:44.259Z,10.74
2023-05-06T04:16:47.669Z,10.89
2023-05-06T04:19:49.983Z,11.00
2023-05-06T04:22:52.708Z,11.12
2023-05-06T04:25:56.048Z,11.23
2023-05-06T04:29:05.989Z,11.36
2023-05-06T04:32:12.131Z,11.44
2023-05-06T04:35:16.318Z,11.54
2023-05-06T04:38:18.909Z,11.69
2023-05-06T04:41:22.224Z,11.92
2023-05-06T04:44:25.148Z,12.10
2023-05-06T04:47:28.158Z,12.21
2023-05-06T04:50:30.832Z,12.33
2023-05-06T04:53:33.505Z,12.54
2023-05-06T04:56:36.158Z,12.64
2023-05-06T04:59:39.365Z,12.70
2023-05-06T05:02:42.516Z,12.91
2023-05-06T05:05:45.418Z,13.00
2023-05-06T05:08:48.635Z,13.21
2023-05-06T05:11:51.501Z,13.37
2023-05-06T05:14:54.387Z,13.47
2023-05-06T05:17:57.120Z,13.69
2023-05-06T05:20:59.796Z,13.80
2023-05-06T05:24:03.448Z,13.86
2023-05-06T05:27:05.805Z,13.91
2023-05-06T05:30:09.686Z,14.09
2023-05-06T05:33:15.168Z,14.24
2023-05-06T05:36:18.296Z,14.47
2023-05-06T05:39:21.736Z,14.60
2023-05-06T05:42:25.314Z,14.81
2023-05-06T05:45:28.162Z,14.94
2023-05-06T05:48:32.825Z,15.11
2023-05-06T05:51:36.350Z,15.43
2023-05-06T05:54:39.506Z,15.65
2023-05-06T05:57:42.820Z,15.92
2023-05-06T06:00:46.266Z,16.13
2023-05-06T06:03:50.141Z,16.38
2023-05-06T06:06:52.818Z,16.59
2023-05-06T06:09:55.818Z,16.95
2023-05-06T06:12:59.251Z,17.39
2023-05-06T06:16:02.642Z,17.68
2023-05-06T06:19:06.530Z,18.04
2023-05-06T06:22:09.372Z,18.42
2023-05-06T06:25:12.052Z,18.67
2023-05-06T06:28:14.867Z,19.55
2023-05-06T06:31:17.439Z,19.97
2023-05-06T06:34:20.201Z,20.27
2023-05-06T06:37:22.712Z,20.25
2023-05-06T06:40:25.573Z,20.08
2023-05-06T06:43:27.971Z,19.95
2023-05-06T06:46:31.153Z,20.76
2023-05-06T06:49:33.830Z,22.61
2023-05-06T06:52:36.524Z,24.36
2023-05-06T06:55:39.174Z,27.09
2023-05-06T06:58:42.009Z,28.41
2023-05-06T07:01:44.775Z,30.47
2023-05-06T07:04:47.423Z,31.33
2023-05-06T07:07:49.828Z,31.19
2023-05-06T07:10:52.496Z,32.70
2023-05-06T07:13:54.968Z,33.26
2023-05-06T07:16:57.532Z,34.18
2023-05-06T07:20:00.797Z,33.22
2023-05-06T07:23:03.612Z,32.75
2023-05-06T07:26:06.153Z,34.42
2023-05-06T07:29:08.848Z,33.42
2023-05-06T07:32:11.305Z,34.45
2023-05-06T07:35:14.187Z,34.15
2023-05-06T07:38:16.552Z,35.57
2023-05-06T07:41:19.229Z,36.34
2023-05-06T07:44:21.669Z,36.83
2023-05-06T07:47:29.111Z,35.49
2023-05-06T07:50:31.898Z,34.77
2023-05-06T07:53:35.763Z,34.18
2023-05-06T07:56:39.051Z,34.04
2023-05-06T07:59:42.727Z,32.82
2023-05-06T08:02:46.659Z,32.09
2023-05-06T08:05:52.520Z,33.60
2023-05-06T08:08:55.227Z,35.50
2023-05-06T08:11:58.438Z,36.63
2023-05-06T08:15:00.944Z,36.74
2023-05-06T08:18:10.355Z,36.65
2023-05-06T08:21:20.839Z,36.51
2023-05-06T08:24:23.536Z,36.90
2023-05-06T08:27:25.820Z,37.66
2023-05-06T08:30:28.712Z,36.97
2023-05-06T08:33:31.225Z,36.20
2023-05-06T08:36:33.921Z,33.36
2023-05-06T08:39:36.321Z,33.52
2023-05-06T08:42:39.280Z,35.10
2023-05-06T08:45:42.417Z,34.67
2023-05-06T08:48:45.789Z,33.56
2023-05-06T08:51:49.671Z,35.30
2023-05-06T08:54:55.637Z,35.38
2023-05-06T08:57:58.157Z,35.39
2023-05-06T09:01:00.899Z,35.32
2023-05-06T09:04:06.390Z,35.28
2023-05-06T09:07:09.062Z,34.86
2023-05-06T09:10:14.779Z,33.18
2023-05-06T09:13:18.233Z,32.23
2023-05-06T09:16:30.611Z,29.76
2023-05-06T09:19:37.951Z,28.78
2023-05-06T09:22:40.958Z,28.55
2023-05-06T09:25:44.496Z,28.22
2023-05-06T09:28:47.117Z,28.02
2023-05-06T09:31:51.180Z,28.41
2023-05-06T09:34:53.851Z,28.31
2023-05-06T09:37:56.967Z,27.65
2023-05-06T09:40:59.392Z,26.99
2023-05-06T09:44:02.589Z,26.56
2023-05-06T09:47:05.196Z,27.38
2023-05-06T09:50:08.993Z,28.11
2023-05-06T09:53:12.249Z,27.80
2023-05-06T09:56:16.131Z,27.55
2023-05-06T09:59:19.602Z,27.12
2023-05-06T10:02:23.870Z,27.55
2023-05-06T10:05:27.526Z,27.85
2023-05-06T10:08:32.856Z,28.66
2023-05-06T10:11:35.831Z,29.21
2023-05-06T10:14:38.599Z,29.65
2023-05-06T10:17:42.252Z,28.96
2023-05-06T10:20:45.136Z,28.40
2023-05-06T10:23:52.205Z,27.79
2023-05-06T10:26:56.486Z,27.65
2023-05-06T10:29:59.797Z,27.38
2023-05-06T10:33:09.500Z,27.38
2023-05-06T10:36:16.350Z,27.57
2023-05-06T10:39:19.046Z,27.11
2023-05-06T10:42:26.797Z,26.88
2023-05-06T10:45:29.208Z,26.74
2023-05-06T10:48:32.516Z,27.08
2023-05-06T10:51:35.281Z,27.27
2023-05-06T10:54:49.238Z,26.43
2023-05-06T10:57:54.887Z,26.57
2023-05-06T11:00:58.190Z,26.47
2023-05-06T11:04:11.228Z,26.65
2023-05-06T11:07:15.080Z,27.04
2023-05-06T11:10:31.062Z,27.33
2023-05-06T11:13:34.929Z,28.11
2023-05-06T11:16:47.043Z,27.94
2023-05-06T11:19:49.730Z,28.08
2023-05-06T11:22:52.778Z,27.93
2023-05-06T11:25:58.385Z,27.71
2023-05-06T11:29:02.605Z,27.22
2023-05-06T11:32:05.693Z,26.63
2023-05-06T11:35:08.830Z,26.70
2023-05-06T11:38:12.151Z,26.76
2023-05-06T11:41:15.790Z,26.90
2023-05-06T11:44:30.066Z,26.42
2023-05-06T11:47:32.487Z,26.56
2023-05-06T11:50:35.181Z,26.63
2023-05-06T11:53:38.258Z,26.71
2023-05-06T11:56:44.908Z,25.95
2023-05-06T11:59:47.265Z,25.92
2023-05-06T12:02:54.489Z,25.78
2023-05-06T12:05:57.814Z,25.49
2023-05-06T12:09:01.304Z,25.34
2023-05-06T12:12:05.049Z,24.92
2023-05-06T12:15:07.910Z,24.71
2023-05-06T12:18:11.145Z,24.41
2023-05-06T12:21:13.447Z,24.36
2023-05-06T12:24:26.565Z,24.07
2023-05-06T12:27:32.706Z,24.05
2023-05-06T12:30:35.571Z,23.99
2023-05-06T12:33:45.560Z,24.24
2023-05-06T12:36:48.189Z,24.27
2023-05-06T12:39:50.513Z,24.25
2023-05-06T12:42:53.775Z,24.16
2023-05-06T12:46:03.511Z,23.95
2023-05-06T12:49:06.272Z,23.83
2023-05-06T12:52:10.037Z,23.63
2023-05-06T12:55:12.741Z,23.87
2023-05-06T12:58:15.824Z,24.09
2023-05-06T13:01:22.036Z,24.10
2023-05-06T13:04:24.819Z,24.51
2023-05-06T13:07:27.892Z,24.85
2023-05-06T13:10:30.550Z,25.00
2023-05-06T13:13:33.369Z,24.98
2023-05-06T13:16:35.918Z,24.67
2023-05-06T13:19:38.582Z,24.42
2023-05-06T13:22:54.351Z,24.18
2023-05-06T13:26:04.712Z,23.95
2023-05-06T13:29:07.913Z,23.70
2023-05-06T13:32:10.560Z,23.56
2023-05-06T13:35:13.008Z,23.45
2023-05-06T13:38:15.869Z,23.09
2023-05-06T13:41:19.647Z,22.72
2023-05-06T13:44:22.972Z,22.40
2023-05-06T13:47:26.734Z,22.21
2023-05-06T13:50:29.337Z,21.97
2023-05-06T13:53:35.001Z,21.42
2023-05-06T13:56:37.678Z,20.95
2023-05-06T13:59:40.034Z,20.64
2023-05-06T14:02:43.709Z,20.70
2023-05-06T14:05:46.700Z,20.90
2023-05-06T14:08:49.056Z,20.92
2023-05-06T14:11:51.666Z,20.67
2023-05-06T14:14:54.148Z,20.51
2023-05-06T14:17:57.542Z,20.23
2023-05-06T14:20:59.942Z,20.13
2023-05-06T14:24:04.294Z,19.98
2023-05-06T14:27:08.072Z,19.78
2023-05-06T14:30:10.979Z,19.24
2023-05-06T14:33:13.604Z,18.92
2023-05-06T14:36:17.917Z,18.75
2023-05-06T14:39:20.396Z,18.61
2023-05-06T14:42:23.154Z,18.35
2023-05-06T14:45:25.586Z,18.03
2023-05-06T14:48:28.483Z,17.57
2023-05-06T14:51:31.275Z,17.45
2023-05-06T14:54:34.226Z,17.28
2023-05-06T14:57:36.633Z,17.22
2023-05-06T15:00:39.500Z,17.19
2023-05-06T15:03:41.775Z,17.26
2023-05-06T15:06:44.350Z,17.42
2023-05-06T15:09:46.726Z,17.63
2023-05-06T15:12:49.723Z,17.83
2023-05-06T15:15:52.135Z,17.88
2023-05-06T15:18:54.727Z,18.08
2023-05-06T15:21:57.211Z,18.27
2023-05-06T15:24:59.915Z,18.53
2023-05-06T15:28:02.319Z,18.73
2023-05-06T15:31:05.058Z,18.74
2023-05-06T15:34:08.978Z,18.82
2023-05-06T15:37:12.103Z,18.88
2023-05-06T15:40:15.007Z,19.03
2023-05-06T15:43:23.274Z,19.27
2023-05-06T15:46:27.356Z,19.49
2023-05-06T15:49:47.518Z,19.64
2023-05-06T15:52:55.926Z,19.74
2023-05-06T15:56:08.847Z,19.86
2023-05-06T15:59:18.910Z,19.92
2023-05-06T16:05:27.353Z,20.05
2023-05-06T16:08:29.868Z,20.16
2023-05-06T16:11:32.517Z,20.08
2023-05-06T16:14:34.895Z,19.63
2023-05-06T16:17:38.436Z,19.44
2023-05-06T16:20:41.148Z,19.49
2023-05-06T16:23:43.715Z,19.56
2023-05-06T16:26:45.984Z,19.50
2023-05-06T16:29:48.638Z,19.51
2023-05-06T16:32:51.041Z,19.43
2023-05-06T16:36:02.340Z,19.27
2023-05-06T16:39:06.276Z,19.07
2023-05-06T16:42:09.572Z,18.85
2023-05-06T16:45:12.419Z,18.65
2023-05-06T16:48:15.649Z,18.44
2023-05-06T16:51:20.671Z,18.31
2023-05-06T16:54:23.601Z,18.23
2023-05-06T16:57:25.867Z,18.22
2023-05-06T17:00:29.929Z,18.23
2023-05-06T17:03:32.621Z,18.08
2023-05-06T17:06:35.337Z,18.06
2023-05-06T17:09:38.344Z,18.06
2023-05-06T17:12:43.741Z,17.95
2023-05-06T17:15:46.367Z,17.85
2023-05-06T17:18:49.032Z,17.76
2023-05-06T17:21:51.824Z,17.67
2023-05-06T17:24:54.528Z,17.62
2023-05-06T17:27:56.921Z,17.49
2023-05-06T17:30:59.623Z,17.40
2023-05-06T17:34:02.246Z,17.34
2023-05-06T17:37:06.998Z,17.31
2023-05-06T17:40:09.387Z,17.37
2023-05-06T17:43:12.164Z,17.35
2023-05-06T17:46:14.546Z,17.29
2023-05-06T17:49:17.244Z,17.23
2023-05-06T17:52:19.812Z,17.20
2023-05-06T17:55:22.857Z,17.20
2023-05-06T17:58:25.470Z,17.14
2023-05-06T18:01:29.089Z,17.09
2023-05-06T18:04:31.866Z,17.01
2023-05-06T18:07:37.336Z,16.96
2023-05-06T18:10:41.295Z,16.98
2023-05-06T18:13:43.925Z,17.02
2023-05-06T18:16:46.611Z,17.00
2023-05-06T18:19:49.037Z,16.99
2023-05-06T18:22:51.702Z,16.99
2023-05-06T18:25:54.210Z,17.01
2023-05-06T18:28:57.233Z,17.01
2023-05-06T18:32:00.260Z,17.04
2023-05-06T18:35:03.005Z,17.02
2023-05-06T18:38:05.774Z,17.03
2023-05-06T18:41:09.067Z,17.00
2023-05-06T18:44:11.940Z,16.99
2023-05-06T18:47:14.621Z,16.93
2023-05-06T18:50:17.092Z,16.92
2023-05-06T18:53:20.157Z,16.88
2023-05-06T18:56:22.741Z,16.90
2023-05-06T18:59:25.586Z,16.84
2023-05-06T19:02:28.117Z,16.75
2023-05-06T19:05:30.853Z,16.71
2023-05-06T19:08:33.212Z,16.59
2023-05-06T19:11:35.812Z,16.49
2023-05-06T19:14:38.127Z,16.52
2023-05-06T19:17:40.870Z,16.60
2023-05-06T19:20:43.307Z,16.60
2023-05-06T19:23:46.455Z,16.58
2023-05-06T19:26:48.958Z,16.55
2023-05-06T19:29:51.881Z,16.55
2023-05-06T19:32:55.518Z,16.59
2023-05-06T19:36:00.250Z,16.65
2023-05-06T19:39:02.534Z,16.76
2023-05-06T19:42:05.458Z,16.71
2023-05-06T19:45:08.817Z,16.74
2023-05-06T19:48:12.863Z,16.76
2023-05-06T19:51:15.154Z,16.82
2023-05-06T19:54:19.448Z,16.94
2023-05-06T19:57:22.239Z,16.91
2023-05-06T20:00:27.292Z,17.02
2023-05-06T20:03:30.532Z,16.95
2023-05-06T20:06:33.124Z,16.85
2023-05-06T20:09:35.922Z,16.92
2023-05-06T20:12:38.253Z,16.89
2023-05-06T20:15:41.607Z,17.03
2023-05-06T20:18:44.004Z,16.93
2023-05-06T20:21:46.618Z,17.02
2023-05-06T20:24:50.770Z,17.01
2023-05-06T20:27:53.498Z,16.98
2023-05-06T20:30:55.967Z,16.85
2023-05-06T20:33:58.728Z,16.77
2023-05-06T20:37:01.573Z,16.83
2023-05-06T20:40:06.662Z,16.91
2023-05-06T20:43:09.015Z,16.84
2023-05-06T20:46:11.690Z,16.82
2023-05-06T20:49:15.053Z,16.79
2023-05-06T20:52:18.003Z,16.95
2023-05-06T20:55:23.225Z,16.85
2023-05-06T20:58:26.081Z,16.79
2023-05-06T21:01:28.970Z,16.72
2023-05-06T21:04:31.637Z,16.73
2023-05-06T21:07:33.917Z,16.65
2023-05-06T21:10:36.897Z,16.67
2023-05-06T21:13:39.771Z,16.61
2023-05-06T21:16:42.381Z,16.61
2023-05-06T21:19:44.729Z,16.59
2023-05-06T21:22:47.852Z,16.61
2023-05-06T21:25:50.193Z,16.62
2023-05-06T21:28:52.874Z,16.57
2023-05-06T21:31:55.239Z,16.48
2023-05-06T21:34:57.861Z,16.40
2023-05-06T21:38:00.396Z,16.27
2023-05-06T21:41:03.434Z,16.21
2023-05-06T21:44:06.844Z,16.08
2023-05-06T21:47:09.492Z,16.05
2023-05-06T21:50:12.782Z,16.12
2023-05-06T21:53:15.560Z,15.91
2023-05-06T21:56:18.334Z,15.73
2023-05-06T21:59:21.604Z,15.60
2023-05-06T22:02:23.978Z,15.41
2023-05-06T22:05:26.664Z,15.31
2023-05-06T22:08:29.940Z,15.18
2023-05-06T22:11:32.825Z,15.09
2023-05-06T22:14:41.247Z,14.99
2023-05-06T22:17:44.448Z,14.92
2023-05-06T22:20:49.092Z,14.92
2023-05-06T22:23:51.810Z,14.88
2023-05-06T22:26:54.156Z,14.88
2023-05-06T22:29:56.796Z,14.84
2023-05-06T22:32:59.224Z,14.89
2023-05-06T22:36:01.821Z,14.89
2023-05-06T22:39:04.179Z,14.91
2023-05-06T22:42:07.736Z,14.93
2023-05-06T22:45:11.009Z,14.97
2023-05-06T22:48:13.761Z,15.01
2023-05-06T22:51:16.034Z,15.06
2023-05-06T22:54:18.867Z,15.14
2023-05-06T22:57:23.271Z,15.18
2023-05-06T23:00:25.926Z,15.18
2023-05-06T23:03:28.421Z,15.22
2023-05-06T23:06:31.740Z,15.31
2023-05-06T23:09:34.102Z,15.35
2023-05-06T23:12:36.948Z,15.32
2023-05-06T23:15:39.945Z,15.29
2023-05-06T23:18:42.937Z,15.24
2023-05-06T23:21:46.060Z,15.24
2023-05-06T23:24:49.837Z,15.17
2023-05-06T23:27:52.292Z,15.15
2023-05-06T23:30:55.044Z,15.21
2023-05-06T23:33:57.462Z,15.31
2023-05-06T23:37:00.239Z,15.22
2023-05-06T23:40:02.768Z,15.17
2023-05-06T23:43:12.014Z,15.14
2023-05-06T23:46:14.498Z,15.21
2023-05-06T23:49:17.162Z,15.17
2023-05-06T23:52:19.560Z,15.02
2023-05-06T23:55:22.441Z,14.96
2023-05-06T23:58:25.395Z,14.86
